createdAt,value
2023-01-11T00:00:18.548Z,98.07
2023-01-11T00:02:48.577Z,98.85
2023-01-11T00:05:18.099Z,98.66
2023-01-11T00:07:47.840Z,98.31
2023-01-11T00:10:17.856Z,98.20
2023-01-11T00:12:48.320Z,97.82
2023-01-11T00:15:19.290Z,96.78
2023-01-11T00:17:49.037Z,97.46
2023-01-11T00:20:19.319Z,97.53
2023-01-11T00:22:49.111Z,97.51
2023-01-11T00:25:18.808Z,98.33
2023-01-11T00:27:49.647Z,97.78
2023-01-11T00:30:19.604Z,97.66
2023-01-11T00:32:49.361Z,98.77
2023-01-11T00:35:18.959Z,98.17
2023-01-11T00:37:48.759Z,98.94
2023-01-11T00:40:18.358Z,98.71
2023-01-11T00:43:05.790Z,99.29
2023-01-11T00:45:53.206Z,98.51
2023-01-11T00:48:22.797Z,98.22
2023-01-11T00:50:55.875Z,98.22
2023-01-11T00:53:25.675Z,97.82
2023-01-11T00:55:55.444Z,98.14
2023-01-11T00:58:25.162Z,98.29
2023-01-11T01:00:54.905Z,98.09
2023-01-11T01:03:24.627Z,97.99
2023-01-11T01:05:55.983Z,97.99
2023-01-11T01:08:25.454Z,98.76
2023-01-11T01:10:55.179Z,99.24
2023-01-11T01:13:42.521Z,99.34
2023-01-11T01:16:12.267Z,99.34
2023-01-11T01:18:42.101Z,100.00
2023-01-11T01:21:11.928Z,100.00
2023-01-11T01:23:41.682Z,100.00
2023-01-11T01:26:11.659Z,100.00
2023-01-11T01:28:41.457Z,100.00
2023-01-11T01:31:11.230Z,100.00
2023-01-11T01:33:41.324Z,100.00
2023-01-11T01:36:11.456Z,100.00
2023-01-11T01:38:41.189Z,100.00
2023-01-11T01:41:13.799Z,100.00
2023-01-11T01:43:55.455Z,100.00
2023-01-11T01:46:30.626Z,100.00
2023-01-11T01:49:06.443Z,100.00
2023-01-11T01:51:38.949Z,100.00
2023-01-11T01:54:14.575Z,100.00
2023-01-11T01:56:47.666Z,100.00
2023-01-11T01:59:21.043Z,100.00
2023-01-11T02:01:52.749Z,100.00
2023-01-11T02:04:25.306Z,100.00
2023-01-11T02:07:00.923Z,100.00
2023-01-11T02:10:00.390Z,100.00
2023-01-11T02:12:33.177Z,100.00
2023-01-11T02:15:04.780Z,100.00
2023-01-11T02:17:35.002Z,100.00
2023-01-11T02:23:26.969Z,100.00
2023-01-11T02:26:19.254Z,100.00
2023-01-11T02:29:13.871Z,100.00
2023-01-11T02:32:04.546Z,100.00
2023-01-11T02:34:42.778Z,100.00
2023-01-11T02:37:27.288Z,100.00
2023-01-11T02:40:17.437Z,100.00
2023-01-11T02:43:13.364Z,100.00
2023-01-11T02:46:00.891Z,100.00
2023-01-11T02:48:45.443Z,100.00
2023-01-11T02:51:20.766Z,100.00
2023-01-11T02:53:56.337Z,100.00
2023-01-11T02:56:28.287Z,100.00
2023-01-11T02:59:00.870Z,100.00
2023-01-11T03:01:31.003Z,100.00
2023-01-11T03:04:00.757Z,100.00
2023-01-11T03:06:33.616Z,100.00
2023-01-11T03:09:15.275Z,100.00
2023-01-11T03:12:26.731Z,100.00
2023-01-11T03:14:59.495Z,100.00
2023-01-11T03:17:38.180Z,100.00
2023-01-11T03:20:15.656Z,100.00
2023-01-11T03:23:06.502Z,100.00
2023-01-11T03:25:41.932Z,100.00
2023-01-11T03:28:46.059Z,100.00
2023-01-11T03:31:39.586Z,100.00
2023-01-11T03:34:27.153Z,100.00
2023-01-11T03:36:59.914Z,100.00
2023-01-11T03:39:32.722Z,100.00
2023-01-11T03:42:05.271Z,100.00
2023-01-11T03:44:38.043Z,100.00
2023-01-11T03:47:10.882Z,100.00
2023-01-11T03:49:58.612Z,100.00
2023-01-11T03:52:31.057Z,100.00
2023-01-11T03:55:02.741Z,100.00
2023-01-11T03:57:38.574Z,100.00
2023-01-11T04:00:11.997Z,100.00
2023-01-11T04:02:42.819Z,100.00
2023-01-11T04:05:13.035Z,100.00
2023-01-11T04:07:42.754Z,100.00
2023-01-11T04:10:14.354Z,100.00
2023-01-11T04:12:45.566Z,100.00
2023-01-11T04:15:15.464Z,100.00
2023-01-11T04:17:45.364Z,100.00
2023-01-11T04:20:15.175Z,100.00
2023-01-11T04:22:44.911Z,100.00
2023-01-11T04:25:14.710Z,100.00
2023-01-11T04:27:44.465Z,100.00
2023-01-11T04:30:14.844Z,100.00
2023-01-11T04:32:44.622Z,100.00
2023-01-11T04:35:14.795Z,100.00
2023-01-11T04:37:44.478Z,100.00
2023-01-11T04:40:15.170Z,100.00
2023-01-11T04:42:46.393Z,100.00
2023-01-11T04:45:16.367Z,100.00
2023-01-11T04:47:46.103Z,100.00
2023-01-11T04:50:16.014Z,100.00
2023-01-11T04:52:45.745Z,100.00
2023-01-11T04:55:15.580Z,100.00
2023-01-11T04:57:46.057Z,100.00
2023-01-11T05:00:16.154Z,100.00
2023-01-11T05:02:45.905Z,100.00
2023-01-11T05:05:15.652Z,100.00
2023-01-11T05:07:45.388Z,100.00
2023-01-11T05:10:15.005Z,100.00
2023-01-11T05:12:46.390Z,100.00
2023-01-11T05:15:15.912Z,100.00
2023-01-11T05:17:45.659Z,100.00
2023-01-11T05:20:15.107Z,100.00
2023-01-11T05:22:44.843Z,100.00
2023-01-11T05:25:14.575Z,100.00
2023-01-11T05:27:44.309Z,100.00
2023-01-11T05:30:14.184Z,100.00
2023-01-11T05:32:43.924Z,100.00
2023-01-11T05:35:13.749Z,100.00
2023-01-11T05:37:43.264Z,100.00
2023-01-11T05:40:14.631Z,100.00
2023-01-11T05:42:45.617Z,100.00
2023-01-11T05:45:29.988Z,100.00
2023-01-11T05:48:01.319Z,100.00
2023-01-11T05:50:31.340Z,100.00
2023-01-11T05:53:01.103Z,100.00
2023-01-11T05:55:30.851Z,100.00
2023-01-11T05:58:00.909Z,100.00
2023-01-11T06:00:30.424Z,100.00
2023-01-11T06:03:02.347Z,99.84
2023-01-11T06:05:33.695Z,99.32
2023-01-11T06:08:03.452Z,97.62
2023-01-11T06:10:33.207Z,98.41
2023-01-11T06:13:20.573Z,97.62
2023-01-11T06:15:50.382Z,98.47
2023-01-11T06:18:20.280Z,97.48
2023-01-11T06:20:53.953Z,97.36
2023-01-11T06:23:24.361Z,96.51
2023-01-11T06:25:54.173Z,96.23
2023-01-11T06:28:24.325Z,96.48
2023-01-11T06:30:55.268Z,95.73
2023-01-11T06:33:26.540Z,96.44
2023-01-11T06:35:57.411Z,96.20
2023-01-11T06:41:16.497Z,95.28
2023-01-11T06:43:46.783Z,95.19
2023-01-11T06:46:18.904Z,94.09
2023-01-11T06:48:49.012Z,93.80
2023-01-11T06:51:18.774Z,92.63
2023-01-11T06:53:48.882Z,91.71
2023-01-11T06:56:19.293Z,92.62
2023-01-11T06:58:49.282Z,92.71
2023-01-11T07:01:19.709Z,93.10
2023-01-11T07:03:49.493Z,92.54
2023-01-11T07:06:19.235Z,93.18
2023-01-11T07:08:49.004Z,92.28
2023-01-11T07:11:18.835Z,91.82
2023-01-11T07:13:48.365Z,92.17
2023-01-11T07:16:19.007Z,92.20
2023-01-11T07:18:48.802Z,91.91
2023-01-11T07:21:18.542Z,92.27
2023-01-11T07:23:49.564Z,91.40
2023-01-11T07:26:19.335Z,90.22
2023-01-11T07:28:49.200Z,90.92
2023-01-11T07:31:19.318Z,90.39
2023-01-11T07:33:49.064Z,90.39
2023-01-11T07:36:18.517Z,90.99
2023-01-11T07:38:48.732Z,90.35
2023-01-11T07:41:36.257Z,90.25
2023-01-11T07:44:10.451Z,89.91
2023-01-11T07:46:40.397Z,90.85
2023-01-11T07:49:10.205Z,90.01
2023-01-11T07:51:40.121Z,90.55
2023-01-11T07:54:11.131Z,89.79
2023-01-11T07:56:40.952Z,90.21
2023-01-11T07:59:11.491Z,89.43
2023-01-11T08:01:41.546Z,89.45
2023-01-11T08:04:13.131Z,88.77
2023-01-11T08:06:42.952Z,88.92
2023-01-11T08:09:12.776Z,89.61
2023-01-11T08:12:00.340Z,89.46
2023-01-11T08:14:41.769Z,88.86
2023-01-11T08:17:16.912Z,89.51
2023-01-11T08:19:46.639Z,89.51
2023-01-11T08:22:17.966Z,89.88
2023-01-11T08:24:47.690Z,89.87
2023-01-11T08:27:17.536Z,89.66
2023-01-11T08:29:47.303Z,90.85
2023-01-11T08:32:17.392Z,89.68
2023-01-11T08:34:47.900Z,89.82
2023-01-11T08:37:17.719Z,90.32
2023-01-11T08:39:48.660Z,90.64
2023-01-11T08:42:18.513Z,90.33
2023-01-11T08:44:48.302Z,89.15
2023-01-11T08:47:18.084Z,89.69
2023-01-11T08:49:47.840Z,90.24
2023-01-11T08:52:17.710Z,90.14
2023-01-11T08:54:47.416Z,90.06
2023-01-11T08:57:17.248Z,90.57
2023-01-11T08:59:46.987Z,90.57
2023-01-11T09:02:17.003Z,89.79
2023-01-11T09:04:47.093Z,89.50
2023-01-11T09:07:16.892Z,90.39
2023-01-11T09:09:47.393Z,90.22
2023-01-11T09:12:17.250Z,90.37
2023-01-11T09:14:47.102Z,90.54
2023-01-11T09:17:16.841Z,90.40
2023-01-11T09:19:46.619Z,90.51
2023-01-11T09:22:16.286Z,89.85
2023-01-11T09:24:46.291Z,89.85
2023-01-11T09:27:16.458Z,89.89
2023-01-11T09:29:46.476Z,90.41
2023-01-11T09:32:16.220Z,89.92
2023-01-11T09:34:47.257Z,90.94
2023-01-11T09:37:17.547Z,91.17
2023-01-11T09:39:47.674Z,90.50
2023-01-11T09:42:39.306Z,89.84
2023-01-11T09:45:27.580Z,91.01
2023-01-11T09:48:10.830Z,90.34
2023-01-11T09:50:47.618Z,90.06
2023-01-11T09:53:25.138Z,90.27
2023-01-11T09:55:58.484Z,89.72
2023-01-11T09:58:53.538Z,89.50
2023-01-11T10:01:49.418Z,89.20
2023-01-11T10:04:35.592Z,89.20
2023-01-11T10:07:44.074Z,86.77
2023-01-11T10:18:28.855Z,86.15
2023-01-11T10:18:52.985Z,86.12
2023-01-11T10:21:13.099Z,85.79
2023-01-11T10:23:57.767Z,85.61
2023-01-11T10:26:31.853Z,83.84
2023-01-11T10:29:11.932Z,83.87
2023-01-11T10:31:51.798Z,84.23
2023-01-11T10:34:23.855Z,83.18
2023-01-11T10:37:16.653Z,83.18
2023-01-11T10:40:27.544Z,82.96
2023-01-11T10:43:08.008Z,82.36
2023-01-11T10:45:55.415Z,82.50
2023-01-11T10:48:37.074Z,82.50
2023-01-11T10:51:37.540Z,82.08
2023-01-11T10:54:16.768Z,81.32
2023-01-11T10:57:04.749Z,82.04
2023-01-11T10:59:39.426Z,82.17
2023-01-11T11:02:21.412Z,80.23
2023-01-11T11:05:26.099Z,81.09
2023-01-11T11:08:04.486Z,79.77
2023-01-11T11:10:53.288Z,79.95
2023-01-11T11:13:45.406Z,80.38
2023-01-11T11:16:26.591Z,78.82
2023-01-11T11:18:59.462Z,78.04
2023-01-11T11:21:33.661Z,76.77
2023-01-11T11:24:17.717Z,78.13
2023-01-11T11:26:50.283Z,77.77
2023-01-11T11:29:25.945Z,76.01
2023-01-11T11:31:58.455Z,76.49
2023-01-11T11:34:29.141Z,75.95
2023-01-11T11:37:00.771Z,76.49
2023-01-11T11:39:33.026Z,77.52
2023-01-11T11:42:11.091Z,77.73
2023-01-11T11:44:41.120Z,77.73
2023-01-11T11:47:18.353Z,76.58
2023-01-11T11:49:48.115Z,77.05
2023-01-11T11:52:19.148Z,77.10
2023-01-11T11:54:56.598Z,76.07
2023-01-11T11:57:29.397Z,76.78
2023-01-11T12:00:05.013Z,75.02
2023-01-11T12:02:37.324Z,75.50
2023-01-11T12:05:11.127Z,74.48
2023-01-11T12:07:55.251Z,74.43
2023-01-11T12:10:23.913Z,75.03
2023-01-11T12:12:56.740Z,74.78
2023-01-11T12:15:34.896Z,73.29
2023-01-11T12:18:31.399Z,74.68
2023-01-11T12:21:09.877Z,72.10
2023-01-11T12:23:40.556Z,73.71
2023-01-11T12:26:22.758Z,72.12
2023-01-11T12:29:23.419Z,72.32
2023-01-11T12:32:11.183Z,71.76
2023-01-11T12:35:05.588Z,73.00
2023-01-11T12:38:05.488Z,72.45
2023-01-11T12:40:52.592Z,72.84
2023-01-11T12:43:22.787Z,73.26
2023-01-11T12:45:58.234Z,71.73
2023-01-11T12:48:37.092Z,71.30
2023-01-11T12:51:32.536Z,71.35
2023-01-11T12:54:10.967Z,71.15
2023-01-11T12:56:46.364Z,68.85
2023-01-11T12:59:35.278Z,68.69
2023-01-11T13:02:14.588Z,67.64
2023-01-11T13:04:50.341Z,69.15
2023-01-11T13:07:45.235Z,69.31
2023-01-11T13:10:17.726Z,69.44
2023-01-11T13:12:58.996Z,67.91
2023-01-11T13:15:44.949Z,66.74
2023-01-11T13:18:20.368Z,68.35
2023-01-11T13:21:06.769Z,68.55
2023-01-11T13:23:54.787Z,68.68
2023-01-11T13:26:29.845Z,68.69
2023-01-11T13:29:18.906Z,68.01
2023-01-11T13:31:51.015Z,69.32
2023-01-11T13:34:26.693Z,69.13
2023-01-11T13:37:02.969Z,70.13
2023-01-11T13:39:53.645Z,68.79
2023-01-11T13:42:31.767Z,69.14
2023-01-11T13:45:04.867Z,69.71
2023-01-11T13:47:47.204Z,69.83
2023-01-11T13:50:29.001Z,70.17
2023-01-11T13:53:06.361Z,70.77
2023-01-11T13:55:50.501Z,70.77
2023-01-11T13:58:24.994Z,70.07
2023-01-11T14:01:00.139Z,70.28
2023-01-11T14:03:35.860Z,71.78
2023-01-11T14:06:21.766Z,70.65
2023-01-11T14:09:05.526Z,70.55
2023-01-11T14:11:44.469Z,70.94
2023-01-11T14:14:18.165Z,70.83
2023-01-11T14:17:02.874Z,71.74
2023-01-11T14:19:54.846Z,70.41
2023-01-11T14:22:42.067Z,71.56
2023-01-11T14:25:23.289Z,71.22
2023-01-11T14:28:12.487Z,69.68
2023-01-11T14:30:55.221Z,71.03
2023-01-11T14:33:39.654Z,70.25
2023-01-11T14:36:40.142Z,70.30
2023-01-11T14:39:24.481Z,69.59
2023-01-11T14:42:05.798Z,69.08
2023-01-11T14:44:55.000Z,69.19
2023-01-11T14:47:42.013Z,69.00
2023-01-11T14:50:22.639Z,69.37
2023-01-11T14:52:54.572Z,69.30
2023-01-11T14:55:27.123Z,69.30
2023-01-11T14:58:03.170Z,69.86
2023-01-11T15:00:35.674Z,69.58
2023-01-11T15:03:11.692Z,68.94
2023-01-11T15:05:52.601Z,69.53
2023-01-11T15:08:27.655Z,70.32
2023-01-11T15:10:59.603Z,69.47
2023-01-11T15:13:33.823Z,69.89
2023-01-11T15:16:36.460Z,69.79
2023-01-11T15:19:11.758Z,68.27
2023-01-11T15:21:44.661Z,67.98
2023-01-11T15:24:32.524Z,67.84
2023-01-11T15:27:03.845Z,68.21
2023-01-11T15:29:36.294Z,68.10
2023-01-11T15:32:22.126Z,68.68
2023-01-11T15:34:52.791Z,68.72
2023-01-11T15:37:34.670Z,68.72
2023-01-11T15:43:21.833Z,68.59
2023-01-11T15:46:31.679Z,69.16
2023-01-11T15:49:21.196Z,69.16
2023-01-11T15:52:19.227Z,69.38
2023-01-11T15:55:25.096Z,69.30
2023-01-11T15:58:19.072Z,69.66
2023-01-11T16:01:08.256Z,69.94
2023-01-11T16:04:02.133Z,69.79
2023-01-11T16:06:37.889Z,70.56
2023-01-11T16:09:24.993Z,70.40
2023-01-11T16:12:01.987Z,70.40
2023-01-11T16:14:43.582Z,72.60
2023-01-11T16:17:14.761Z,71.84
2023-01-11T16:19:45.831Z,71.20
2023-01-11T16:22:20.818Z,70.67
2023-01-11T16:24:53.495Z,71.03
2023-01-11T16:27:26.708Z,70.78
2023-01-11T16:29:57.550Z,70.85
2023-01-11T16:32:35.481Z,70.41
2023-01-11T16:35:19.922Z,70.43
2023-01-11T16:37:55.612Z,70.40
2023-01-11T16:40:39.820Z,71.11
2023-01-11T16:43:27.686Z,69.73
2023-01-11T16:45:57.522Z,69.94
2023-01-11T16:48:29.465Z,70.59
2023-01-11T16:51:14.248Z,70.19
2023-01-11T16:53:46.960Z,69.94
2023-01-11T16:56:19.511Z,71.30
2023-01-11T16:59:07.442Z,70.87
2023-01-11T17:01:54.704Z,72.30
2023-01-11T17:04:29.640Z,71.66
2023-01-11T17:07:11.000Z,71.64
2023-01-11T17:09:43.812Z,71.68
2023-01-11T17:12:19.060Z,71.11
2023-01-11T17:15:08.926Z,70.78
2023-01-11T17:17:39.549Z,71.78
2023-01-11T17:20:21.872Z,70.71
2023-01-11T17:22:53.756Z,70.59
2023-01-11T17:25:37.302Z,71.19
2023-01-11T17:28:06.808Z,71.63
2023-01-11T17:30:38.313Z,72.07
2023-01-11T17:33:09.611Z,71.91
2023-01-11T17:35:42.361Z,72.25
2023-01-11T17:38:15.152Z,72.34
2023-01-11T17:40:46.333Z,72.04
2023-01-11T17:43:45.525Z,71.62
2023-01-11T17:46:21.678Z,72.36
2023-01-11T17:48:57.676Z,72.63
2023-01-11T17:51:31.376Z,72.40
2023-01-11T17:54:01.047Z,73.21
2023-01-11T17:56:41.525Z,73.31
2023-01-11T17:59:22.217Z,73.76
2023-01-11T18:02:02.775Z,73.79
2023-01-11T18:04:33.002Z,73.94
2023-01-11T18:07:19.906Z,74.23
2023-01-11T18:09:51.827Z,74.81
2023-01-11T18:12:30.800Z,74.56
2023-01-11T18:15:03.595Z,74.94
2023-01-11T18:17:42.560Z,74.42
2023-01-11T18:20:20.502Z,74.90
2023-01-11T18:23:05.259Z,74.98
2023-01-11T18:25:36.305Z,74.99
2023-01-11T18:28:28.069Z,74.75
2023-01-11T18:31:01.903Z,75.79
2023-01-11T18:33:34.401Z,75.77
2023-01-11T18:36:05.287Z,75.31
2023-01-11T18:38:36.969Z,75.95
2023-01-11T18:41:26.843Z,75.57
2023-01-11T18:43:56.941Z,75.88
2023-01-11T18:46:26.404Z,76.30
2023-01-11T18:48:56.161Z,75.75
2023-01-11T18:51:31.748Z,75.86
2023-01-11T18:54:01.250Z,76.08
2023-01-11T18:56:30.877Z,75.94
2023-01-11T18:59:00.640Z,75.19
2023-01-11T19:01:35.246Z,75.30
2023-01-11T19:04:03.017Z,75.05
2023-01-11T19:06:32.782Z,74.97
2023-01-11T19:09:02.669Z,75.15
2023-01-11T19:11:32.408Z,74.96
2023-01-11T19:14:02.132Z,74.92
2023-01-11T19:16:31.876Z,75.47
2023-01-11T19:19:01.838Z,76.44
2023-01-11T19:21:31.576Z,77.13
2023-01-11T19:24:01.359Z,77.23
2023-01-11T19:26:31.055Z,77.65
2023-01-11T19:29:01.156Z,78.79
2023-01-11T19:31:31.505Z,78.41
2023-01-11T19:34:01.419Z,78.63
2023-01-11T19:36:32.230Z,78.19
2023-01-11T19:39:02.290Z,78.77
2023-01-11T19:41:33.634Z,78.77
2023-01-11T19:44:03.454Z,78.34
2023-01-11T19:46:33.280Z,78.97
2023-01-11T19:49:02.777Z,78.39
2023-01-11T19:51:32.542Z,78.83
2023-01-11T19:54:02.304Z,77.00
2023-01-11T19:56:32.724Z,76.90
2023-01-11T19:59:02.506Z,77.28
2023-01-11T20:01:32.275Z,77.20
2023-01-11T20:04:01.948Z,78.08
2023-01-11T20:06:31.892Z,78.87
2023-01-11T20:09:01.675Z,78.96
2023-01-11T20:11:31.553Z,80.01
2023-01-11T20:14:01.283Z,81.07
2023-01-11T20:16:31.022Z,82.21
2023-01-11T20:19:00.754Z,81.67
2023-01-11T20:21:32.923Z,82.99
2023-01-11T20:24:03.555Z,82.91
2023-01-11T20:26:34.016Z,83.42
2023-01-11T20:29:05.507Z,84.52
2023-01-11T20:31:35.822Z,86.95
2023-01-11T20:34:10.687Z,86.95
2023-01-11T20:36:42.125Z,87.76
2023-01-11T20:39:12.595Z,87.75
2023-01-11T20:41:48.490Z,87.71
2023-01-11T20:44:24.341Z,88.15
2023-01-11T20:46:55.650Z,89.68
2023-01-11T20:49:28.801Z,90.32
2023-01-11T20:51:58.681Z,90.07
2023-01-11T20:54:28.126Z,90.49
2023-01-11T20:57:00.685Z,90.22
2023-01-11T20:59:32.105Z,89.93
2023-01-11T21:02:01.813Z,90.22
2023-01-11T21:04:31.701Z,90.96
2023-01-11T21:07:01.436Z,91.83
2023-01-11T21:09:30.966Z,90.19
2023-01-11T21:12:01.027Z,90.88
2023-01-11T21:14:30.930Z,91.20
2023-01-11T21:17:00.669Z,89.95
2023-01-11T21:19:31.100Z,90.73
2023-01-11T21:22:01.250Z,90.02
2023-01-11T21:24:31.384Z,90.02
2023-01-11T21:27:01.187Z,89.56
2023-01-11T21:29:31.367Z,89.77
2023-01-11T21:32:01.127Z,89.10
2023-01-11T21:34:30.769Z,89.34
2023-01-11T21:37:00.517Z,88.49
2023-01-11T21:39:30.240Z,89.20
2023-01-11T21:42:00.035Z,89.39
2023-01-11T21:44:33.432Z,88.69
2023-01-11T21:47:05.778Z,88.12
2023-01-11T21:49:35.497Z,88.19
2023-01-11T21:52:05.246Z,88.26
2023-01-11T21:54:35.068Z,88.27
2023-01-11T21:57:04.655Z,88.27
2023-01-11T21:59:35.736Z,87.03
2023-01-11T22:02:05.852Z,87.20
2023-01-11T22:04:36.768Z,87.20
2023-01-11T22:07:06.493Z,87.64
2023-01-11T22:09:36.261Z,87.43
2023-01-11T22:12:06.136Z,86.50
2023-01-11T22:14:35.940Z,87.31
2023-01-11T22:17:05.711Z,87.21
2023-01-11T22:19:35.776Z,86.45
2023-01-11T22:22:06.286Z,85.29
2023-01-11T22:24:36.058Z,86.21
2023-01-11T22:27:05.649Z,86.06
2023-01-11T22:29:35.390Z,86.14
2023-01-11T22:32:05.214Z,85.68
2023-01-11T22:34:35.409Z,86.29
2023-01-11T22:37:05.281Z,85.97
2023-01-11T22:39:36.663Z,85.95
2023-01-11T22:42:06.919Z,85.52
2023-01-11T22:44:36.647Z,85.33
2023-01-11T22:47:06.774Z,85.44
2023-01-11T22:49:36.516Z,84.47
2023-01-11T22:52:08.395Z,84.64
2023-01-11T22:54:38.131Z,84.64
2023-01-11T22:57:07.887Z,83.72
2023-01-11T22:59:37.895Z,84.54
2023-01-11T23:02:07.906Z,84.34
2023-01-11T23:04:37.641Z,83.53
2023-01-11T23:07:07.721Z,84.16
2023-01-11T23:09:37.512Z,83.85
2023-01-11T23:12:27.004Z,83.24
2023-01-11T23:14:57.016Z,83.44
2023-01-11T23:17:27.027Z,83.74
2023-01-11T23:19:56.759Z,84.66
2023-01-11T23:22:26.705Z,84.66
2023-01-11T23:24:56.775Z,84.57
2023-01-11T23:27:26.593Z,85.75
2023-01-11T23:29:56.811Z,85.47
2023-01-11T23:32:26.258Z,85.47
2023-01-11T23:34:56.165Z,85.80
2023-01-11T23:37:25.907Z,86.23
2023-01-11T23:39:55.644Z,85.98
2023-01-11T23:42:27.537Z,86.47
2023-01-11T23:44:58.812Z,86.64
2023-01-11T23:47:30.574Z,86.41
2023-01-11T23:50:01.358Z,86.97
2023-01-11T23:52:32.980Z,87.19
2023-01-11T23:55:03.036Z,87.61
2023-01-11T23:57:32.778Z,88.66
